Montgomery Regional, AL

7:37 AM CST on February 14, 2016 (GMT -0600)
Daughn's Brookwood Estates | | Change Station
CLOSE
Current Station
Personal Weather Station
Location: Prattville, AL
Elevation: 362 ft
Nearby Weather Stations

Elev 362 ft 32.48 °N, 86.45 °W | Updated 36 seconds ago

Clear
Clear
32.4 °F
Feels Like 27 °F
N
5.8
Wind Variable Wind from ENE
Gusts 5.8 mph

Today
High -- | Low -- °F
--% Chance of Precip.
Yesterday
High -- | Low -- °F
Precip. -- in
Pressure 30.35 in
Visibility 10.0 miles
Clouds Clear
Windchill 27 °F
Dew Point 15 °F
Humidity 49%
Rainfall 0.00 in
Snow Depth Not available.
6:29 AM 5:30 PM
Waxing Crescent, 42% visible
METAR KMXF 141258Z AUTO 07006KT 10SM CLR 01/M10 A3034 RMK AO2 SLP278 T00051104
Pressure 30.35 in
Visibility 10.0 miles
Clouds Clear
Windchill 27 °F
Dew Point 15 °F
Humidity 49%
Rainfall 0.00 in
Snow Depth Not available.
6:29 AM 5:30 PM
Waxing Crescent, 42% visible
METAR KMXF 141258Z AUTO 07006KT 10SM CLR 01/M10 A3034 RMK AO2 SLP278 T00051104

10-Day Weather Forecast

Almanac

Astronomy

Feb. 14, 2016 Rise Set
Actual Time
Civil Twilight
Nautical Twilight
Astronomical Twilight
Moon
Length of Visible Light
Length of Day
Tomorrow will be .
, % of the Moon is Illuminated

Today's Extremes

State Highs State Lows

Community

WunderPhotos

Upload Photos

1,892,790 photos uploaded!

WunderBlog® & News

Nearby

Air Quality

  Air Quality AQ Index Pollutant
Not available.

Snow Depth

Station Depth Elevation

Earthquake Activity

City Distance Mag. Time & Date
Minimum magnitude displayed is 2.5.

Coastal Water Temperatures

Place Temperature

Stations

Nearby Weather Stations

Station Location Temp. Windchill Dew Point Humidity Wind Precip. Elev Updated Type
                   

Watches & Warnings

There are currently no watches in effect.